Current Weather

John F Kennedy Intl

New York, New York (KJFK)

Report from: Friday, February 23, 2024 1:51 PM EST
Current time: Friday, February 23, 2024 2:11 PM EST

Nearby weather – Weather history – Daily summaries
Weather forecast

Temperature8.3°C (46.9°F)
Wind chill5.9°C (42.5°F)
Dew point4.4°C (39.9°F)
Winds 8 kts (4.1 m/s, 9.2 mph) North (360°)
Visibility10 mi. (16.1 km)
Clouds Ceiling: Broken clouds 1,800 ft. (549 m)
Overcast 4,000 ft. (1,219 m)
Altimeter29.47 in.Hg (998 mB)
PrecipitiationTrace
Precip. events Rain ended 1:05 PM
Relative humidity76 %
Density altitude-153 ft. (-47 m)
Sea-level pressure99.8 kPa (998 mB, 29.47 in.Hg)
Remarks Automated weather observing station with precipitation discriminator
Flight conditions Marginal Visual Meteorological Conditions
Raw dataKJFK 231851Z 36008KT 10SM BKN018 OVC040 08/04 A2947 RMK AO2 RAE05 SLP978 P0000 T00830044
An error has occurred. This application may no longer respond until reloaded. Reload 🗙